createdAt,value
2019-03-20T00:02:00.998Z,7.62
2019-03-20T00:04:27.710Z,7.25
2019-03-20T00:06:54.452Z,7.55
2019-03-20T00:09:21.177Z,7.75
2019-03-20T00:11:48.860Z,8.50
2019-03-20T00:14:15.559Z,7.60
2019-03-20T00:16:42.240Z,7.58
2019-03-20T00:19:08.975Z,7.40
2019-03-20T00:21:35.687Z,6.87
2019-03-20T00:24:02.419Z,6.80
2019-03-20T00:26:29.127Z,6.67
2019-03-20T00:28:55.767Z,6.75
2019-03-20T00:31:23.584Z,5.92
2019-03-20T00:33:50.234Z,5.75
2019-03-20T00:36:16.940Z,6.53
2019-03-20T00:38:43.620Z,6.00
2019-03-20T00:41:10.303Z,6.20
2019-03-20T00:43:36.951Z,6.80
2019-03-20T00:46:03.715Z,7.47
2019-03-20T00:48:30.401Z,6.25
2019-03-20T00:50:57.132Z,6.67
2019-03-20T00:53:23.856Z,6.80
2019-03-20T00:55:51.477Z,6.28
2019-03-20T00:58:18.179Z,6.55
2019-03-20T01:00:44.879Z,5.83
2019-03-20T01:03:11.512Z,7.50
2019-03-20T01:05:38.202Z,6.87
2019-03-20T01:08:04.902Z,6.42
2019-03-20T01:10:31.623Z,6.42
2019-03-20T01:12:58.367Z,6.70
2019-03-20T01:15:25.110Z,6.37
2019-03-20T01:17:51.729Z,6.00
2019-03-20T01:20:19.631Z,5.35
2019-03-20T01:22:46.540Z,6.12
2019-03-20T01:25:14.198Z,5.75
2019-03-20T01:27:40.853Z,5.78
2019-03-20T01:30:35.047Z,5.28
2019-03-20T01:33:04.264Z,5.60
2019-03-20T01:35:30.942Z,6.20
2019-03-20T01:37:57.640Z,6.60
2019-03-20T01:40:25.278Z,6.45
2019-03-20T01:42:51.928Z,7.70
2019-03-20T01:45:18.660Z,6.55
2019-03-20T01:47:45.298Z,7.85
2019-03-20T01:50:11.963Z,8.53
2019-03-20T01:52:38.674Z,8.38
2019-03-20T01:55:05.915Z,8.70
2019-03-20T01:57:32.632Z,9.43
2019-03-20T01:59:59.449Z,9.00
2019-03-20T02:02:26.226Z,8.90
2019-03-20T02:04:52.946Z,10.53
2019-03-20T02:07:19.675Z,10.55
2019-03-20T02:09:46.293Z,10.58
2019-03-20T02:12:12.998Z,10.70
2019-03-20T02:14:39.692Z,10.35
2019-03-20T02:17:06.429Z,10.78
2019-03-20T02:19:33.151Z,9.83
2019-03-20T02:21:59.900Z,9.08
2019-03-20T02:24:26.511Z,10.18
2019-03-20T02:26:53.223Z,8.98
2019-03-20T02:29:19.923Z,10.05
2019-03-20T02:31:46.589Z,9.98
2019-03-20T02:34:13.335Z,10.45
2019-03-20T02:36:40.043Z,10.32
2019-03-20T02:39:07.716Z,10.20
2019-03-20T02:41:34.457Z,10.53
2019-03-20T02:44:01.170Z,10.18
2019-03-20T02:46:27.811Z,10.80
2019-03-20T02:48:54.483Z,10.48
2019-03-20T02:51:21.167Z,10.72
2019-03-20T02:53:47.836Z,10.30
2019-03-20T02:56:14.503Z,9.75
2019-03-20T02:58:42.231Z,10.15
2019-03-20T03:01:08.950Z,9.55
2019-03-20T03:03:35.603Z,9.08
2019-03-20T03:06:07.066Z,10.20
2019-03-20T03:08:31.105Z,9.18
2019-03-20T03:10:57.781Z,10.15
2019-03-20T03:13:24.487Z,9.70
2019-03-20T03:15:51.295Z,9.83
2019-03-20T03:18:17.967Z,9.33
2019-03-20T03:20:44.681Z,9.38
2019-03-20T03:23:12.327Z,9.85
2019-03-20T03:25:39.039Z,7.92
2019-03-20T03:28:05.761Z,7.10
2019-03-20T03:30:32.392Z,5.78
2019-03-20T03:32:59.084Z,6.40
2019-03-20T03:35:25.819Z,5.75
2019-03-20T03:37:52.593Z,5.53
2019-03-20T03:40:19.539Z,5.35
2019-03-20T03:42:46.278Z,5.00
2019-03-20T03:45:14.183Z,4.62
2019-03-20T03:47:40.863Z,5.15
2019-03-20T03:50:09.253Z,4.67
2019-03-20T03:52:35.986Z,5.20
2019-03-20T03:55:04.624Z,5.00
2019-03-20T03:57:31.366Z,5.22
2019-03-20T03:59:58.085Z,5.40
2019-03-20T04:02:24.766Z,4.92
2019-03-20T04:04:51.452Z,4.50
2019-03-20T04:07:18.054Z,5.25
2019-03-20T04:09:44.805Z,5.12
2019-03-20T04:12:11.588Z,5.08
2019-03-20T04:14:38.298Z,5.28
2019-03-20T04:17:20.446Z,4.97
2019-03-20T04:19:47.203Z,5.12
2019-03-20T04:22:13.816Z,4.80
2019-03-20T04:24:40.528Z,4.80
2019-03-20T04:27:07.180Z,4.67
2019-03-20T04:29:33.923Z,4.50
2019-03-20T04:32:00.631Z,4.47
2019-03-20T04:34:27.358Z,4.90
2019-03-20T04:36:53.994Z,4.85
2019-03-20T04:39:20.638Z,4.58
2019-03-20T04:41:47.398Z,5.00
2019-03-20T04:44:14.020Z,4.85
2019-03-20T04:46:41.757Z,5.78
2019-03-20T04:49:08.569Z,6.12
2019-03-20T04:51:35.204Z,6.15
2019-03-20T04:54:01.806Z,5.87
2019-03-20T04:56:28.519Z,5.87
2019-03-20T04:58:55.135Z,5.85
2019-03-20T05:01:21.809Z,7.05
2019-03-20T05:03:48.502Z,7.80
2019-03-20T05:06:15.106Z,7.55
2019-03-20T05:08:41.731Z,7.95
2019-03-20T05:11:08.416Z,8.13
2019-03-20T05:13:35.116Z,8.50
2019-03-20T05:16:01.762Z,8.28
2019-03-20T05:18:28.530Z,9.35
2019-03-20T05:20:55.139Z,9.28
2019-03-20T05:23:21.820Z,8.90
2019-03-20T05:25:48.514Z,8.90
2019-03-20T05:28:15.156Z,9.88
2019-03-20T05:30:41.824Z,8.90
2019-03-20T05:33:08.741Z,8.98
2019-03-20T05:35:35.351Z,9.08
2019-03-20T05:38:02.042Z,7.97
2019-03-20T05:40:28.735Z,8.50
2019-03-20T05:42:55.399Z,7.85
2019-03-20T05:45:22.130Z,9.08
2019-03-20T05:47:48.843Z,8.68
2019-03-20T05:50:16.166Z,8.50
2019-03-20T05:52:42.874Z,7.65
2019-03-20T05:55:09.600Z,8.35
2019-03-20T05:57:36.235Z,8.43
2019-03-20T06:00:18.911Z,8.43
2019-03-20T06:02:45.838Z,9.03
2019-03-20T06:05:12.578Z,8.90
2019-03-20T06:07:39.312Z,8.45
2019-03-20T06:10:09.059Z,8.80
2019-03-20T06:12:36.683Z,8.18
2019-03-20T06:15:04.439Z,5.78
2019-03-20T06:17:31.222Z,6.25
2019-03-20T06:19:57.823Z,6.20
2019-03-20T06:22:24.463Z,5.30
2019-03-20T06:24:51.156Z,5.28
2019-03-20T06:27:17.788Z,4.55
2019-03-20T06:29:44.420Z,5.42
2019-03-20T06:32:11.090Z,4.60
2019-03-20T06:34:37.705Z,5.22
2019-03-20T06:37:05.332Z,3.72
2019-03-20T06:39:32.005Z,3.87
2019-03-20T06:41:58.639Z,4.30
2019-03-20T06:44:25.261Z,3.85
2019-03-20T06:46:51.930Z,3.87
2019-03-20T06:49:18.654Z,4.65
2019-03-20T06:51:45.371Z,4.12
2019-03-20T06:54:12.083Z,4.03
2019-03-20T06:56:38.705Z,3.87
2019-03-20T06:59:25.680Z,3.75
2019-03-20T07:01:52.562Z,3.75
2019-03-20T07:04:22.952Z,4.00
2019-03-20T07:06:53.460Z,3.92
2019-03-20T07:09:30.013Z,4.12
2019-03-20T07:11:56.617Z,3.70
2019-03-20T07:14:23.348Z,3.40
2019-03-20T07:16:50.047Z,3.55
2019-03-20T07:19:16.763Z,3.90
2019-03-20T07:21:43.470Z,3.90
2019-03-20T07:24:10.185Z,3.80
2019-03-20T07:26:36.843Z,3.40
2019-03-20T07:29:03.706Z,3.42
2019-03-20T07:31:30.411Z,3.27
2019-03-20T07:33:57.041Z,3.05
2019-03-20T07:36:23.709Z,2.80
2019-03-20T07:38:50.413Z,3.27
2019-03-20T07:41:17.078Z,2.70
2019-03-20T07:43:43.939Z,3.33
2019-03-20T07:46:10.670Z,3.33
2019-03-20T07:48:37.279Z,3.37
2019-03-20T07:51:03.917Z,2.72
2019-03-20T07:53:30.664Z,3.12
2019-03-20T07:55:58.411Z,2.80
2019-03-20T07:58:25.085Z,2.58
2019-03-20T08:00:51.769Z,2.58
2019-03-20T08:03:18.374Z,2.27
2019-03-20T08:05:45.118Z,2.55
2019-03-20T08:08:11.787Z,2.75
2019-03-20T08:10:38.549Z,2.67
2019-03-20T08:13:05.256Z,2.20
2019-03-20T08:15:31.992Z,2.05
2019-03-20T08:17:58.586Z,2.05
2019-03-20T08:20:27.662Z,2.75
2019-03-20T08:22:54.546Z,2.55
2019-03-20T08:25:21.318Z,2.33
2019-03-20T08:27:48.026Z,2.40
2019-03-20T08:30:18.247Z,2.05
2019-03-20T08:32:44.855Z,2.95
2019-03-20T08:35:12.427Z,2.55
2019-03-20T08:37:39.616Z,2.12
2019-03-20T08:40:14.648Z,2.12
2019-03-20T08:42:41.381Z,2.35
2019-03-20T08:45:10.483Z,2.12
2019-03-20T08:47:37.206Z,2.33
2019-03-20T08:50:07.490Z,2.10
2019-03-20T08:52:34.184Z,1.90
2019-03-20T08:55:00.845Z,1.80
2019-03-20T08:57:27.592Z,2.02
2019-03-20T08:59:54.271Z,2.10
2019-03-20T09:02:20.941Z,1.62
2019-03-20T09:04:47.591Z,1.75
2019-03-20T09:07:14.363Z,1.60
2019-03-20T09:09:41.068Z,2.00
2019-03-20T09:12:07.802Z,1.60
2019-03-20T09:14:34.529Z,1.90
2019-03-20T09:17:02.146Z,1.80
2019-03-20T09:19:28.829Z,2.00
2019-03-20T09:21:55.644Z,2.10
2019-03-20T09:24:22.374Z,2.37
2019-03-20T09:26:49.036Z,2.12
2019-03-20T09:29:18.790Z,2.00
2019-03-20T09:31:44.332Z,2.00
2019-03-20T09:34:12.031Z,1.92
2019-03-20T09:36:43.063Z,1.87
2019-03-20T09:39:07.319Z,1.75
2019-03-20T09:41:33.981Z,1.75
2019-03-20T09:44:01.815Z,1.90
2019-03-20T09:46:28.427Z,1.70
2019-03-20T09:48:55.129Z,1.70
2019-03-20T09:51:21.854Z,1.70
2019-03-20T09:53:48.522Z,1.60
2019-03-20T09:56:15.161Z,1.90
2019-03-20T09:58:41.879Z,1.80
2019-03-20T10:01:08.625Z,1.50
2019-03-20T10:03:35.376Z,1.70
2019-03-20T10:06:02.118Z,2.00
2019-03-20T10:08:28.826Z,1.40
2019-03-20T10:10:55.491Z,1.60
2019-03-20T10:13:22.162Z,1.42
2019-03-20T10:15:48.827Z,1.65
2019-03-20T10:18:15.494Z,1.60
2019-03-20T10:20:42.197Z,1.45
2019-03-20T10:23:08.907Z,1.82
2019-03-20T10:25:44.091Z,1.70
2019-03-20T10:28:04.334Z,1.60
2019-03-20T10:30:30.938Z,1.60
2019-03-20T10:32:57.767Z,1.72
2019-03-20T10:35:24.487Z,1.72
2019-03-20T10:37:51.346Z,1.67
2019-03-20T10:40:27.443Z,1.82
2019-03-20T10:42:54.260Z,1.65
2019-03-20T10:45:20.984Z,1.62
2019-03-20T10:47:48.378Z,1.87
2019-03-20T10:50:24.522Z,1.55
2019-03-20T10:52:51.243Z,1.75
2019-03-20T10:55:17.956Z,1.77
2019-03-20T10:57:44.699Z,1.90
2019-03-20T11:00:23.320Z,1.77
2019-03-20T11:02:50.028Z,2.10
2019-03-20T11:05:17.284Z,2.20
2019-03-20T11:07:43.903Z,1.98
2019-03-20T11:10:19.815Z,1.50
2019-03-20T11:12:46.527Z,1.87
2019-03-20T11:15:14.855Z,1.77
2019-03-20T11:17:41.539Z,1.90
2019-03-20T11:20:10.759Z,1.85
2019-03-20T11:22:37.463Z,2.10
2019-03-20T11:25:07.403Z,2.10
2019-03-20T11:27:34.124Z,2.12
2019-03-20T11:30:00.729Z,1.87
2019-03-20T11:32:27.403Z,2.95
2019-03-20T11:34:54.086Z,1.80
2019-03-20T11:37:20.865Z,2.10
2019-03-20T11:39:47.562Z,1.62
2019-03-20T11:42:14.298Z,3.27
2019-03-20T11:44:40.906Z,1.80
2019-03-20T11:47:07.602Z,1.65
2019-03-20T11:49:35.279Z,1.92
2019-03-20T11:52:03.246Z,1.65
2019-03-20T11:54:29.968Z,2.10
2019-03-20T11:56:56.692Z,1.95
2019-03-20T11:59:24.395Z,2.10
2019-03-20T12:01:51.073Z,1.90
2019-03-20T12:04:17.780Z,1.70
2019-03-20T12:06:44.414Z,2.15
2019-03-20T12:09:11.138Z,1.98
2019-03-20T12:11:45.892Z,1.57
2019-03-20T12:14:07.470Z,2.25
2019-03-20T12:16:34.134Z,2.00
2019-03-20T12:19:00.850Z,1.85
2019-03-20T12:21:27.481Z,1.80
2019-03-20T12:23:54.184Z,2.47
2019-03-20T12:26:20.865Z,1.95
2019-03-20T12:28:47.517Z,2.40
2019-03-20T12:31:14.177Z,1.72
2019-03-20T12:33:40.947Z,2.08
2019-03-20T12:36:07.642Z,1.55
2019-03-20T12:38:34.303Z,2.20
2019-03-20T12:41:01.043Z,2.00
2019-03-20T12:43:27.687Z,2.05
2019-03-20T12:45:54.340Z,2.15
2019-03-20T12:48:21.035Z,2.10
2019-03-20T12:50:47.706Z,1.80
2019-03-20T12:53:17.589Z,2.65
2019-03-20T12:55:44.278Z,1.82
2019-03-20T12:58:11.089Z,2.17
2019-03-20T13:00:37.990Z,2.10
2019-03-20T13:03:04.734Z,1.75
2019-03-20T13:05:32.353Z,2.20
2019-03-20T13:08:05.516Z,1.98
2019-03-20T13:10:27.755Z,1.77
2019-03-20T13:12:54.525Z,1.98
2019-03-20T13:15:27.947Z,1.55
2019-03-20T13:17:55.472Z,2.22
2019-03-20T13:20:22.120Z,2.15
2019-03-20T13:23:10.138Z,1.70
2019-03-20T13:25:36.836Z,2.05
2019-03-20T13:28:03.734Z,2.22
2019-03-20T13:30:37.045Z,2.02
2019-03-20T13:33:03.957Z,2.15
2019-03-20T13:35:30.751Z,2.08
2019-03-20T13:37:57.527Z,1.82
2019-03-20T13:40:24.155Z,1.62
2019-03-20T13:42:50.821Z,1.65
2019-03-20T13:45:22.111Z,1.80
2019-03-20T13:47:48.751Z,2.30
2019-03-20T13:50:15.467Z,1.85
2019-03-20T13:52:42.167Z,2.08
2019-03-20T13:55:13.063Z,2.00
2019-03-20T13:57:39.686Z,2.08
2019-03-20T14:00:18.106Z,2.17
2019-03-20T14:02:44.710Z,1.98
2019-03-20T14:05:11.847Z,1.72
2019-03-20T14:07:38.585Z,1.98
2019-03-20T14:10:11.034Z,2.10
2019-03-20T14:12:37.714Z,1.92
2019-03-20T14:15:06.195Z,2.10
2019-03-20T14:17:32.873Z,2.10
2019-03-20T14:19:59.509Z,2.10
2019-03-20T14:22:26.233Z,2.15
2019-03-20T14:24:52.842Z,1.70
2019-03-20T14:27:19.547Z,2.47
2019-03-20T14:29:46.320Z,1.80
2019-03-20T14:32:13.082Z,2.37
2019-03-20T14:34:39.732Z,2.12
2019-03-20T14:37:06.458Z,2.00
2019-03-20T14:39:33.077Z,2.92
2019-03-20T14:41:59.762Z,2.37
2019-03-20T14:44:26.444Z,2.00
2019-03-20T14:46:53.127Z,2.27
2019-03-20T14:49:19.933Z,2.10
2019-03-20T14:51:47.607Z,2.05
2019-03-20T14:54:15.478Z,2.27
2019-03-20T14:56:42.198Z,2.08
2019-03-20T14:59:08.917Z,1.90
2019-03-20T15:01:35.529Z,1.90
2019-03-20T15:04:02.216Z,2.02
2019-03-20T15:06:28.933Z,1.85
2019-03-20T15:08:55.635Z,2.42
2019-03-20T15:11:22.403Z,2.20
2019-03-20T15:13:49.179Z,2.22
2019-03-20T15:16:15.878Z,2.12
2019-03-20T15:18:42.523Z,2.80
2019-03-20T15:21:09.300Z,2.40
2019-03-20T15:23:35.938Z,2.92
2019-03-20T15:26:02.812Z,2.47
2019-03-20T15:28:29.509Z,2.30
2019-03-20T15:30:56.238Z,2.27
2019-03-20T15:33:22.982Z,2.50
2019-03-20T15:35:49.726Z,2.52
2019-03-20T15:38:16.364Z,2.50
2019-03-20T15:40:43.049Z,2.20
2019-03-20T15:43:09.836Z,2.20
2019-03-20T15:45:36.619Z,2.15
2019-03-20T15:48:03.430Z,2.17
2019-03-20T15:50:30.346Z,2.00
2019-03-20T15:52:57.163Z,2.20
2019-03-20T15:55:29.454Z,2.10
2019-03-20T15:57:56.085Z,2.10
2019-03-20T16:00:23.147Z,1.90
2019-03-20T16:02:58.562Z,1.80
2019-03-20T16:05:25.359Z,2.00
2019-03-20T16:07:52.008Z,2.20
2019-03-20T16:10:21.712Z,2.22
2019-03-20T16:12:48.411Z,2.15
2019-03-20T16:15:17.159Z,2.55
2019-03-20T16:17:43.896Z,2.17
2019-03-20T16:20:11.757Z,2.27
2019-03-20T16:22:39.500Z,2.35
2019-03-20T16:25:08.962Z,2.20
2019-03-20T16:27:35.723Z,3.17
2019-03-20T16:30:03.654Z,2.80
2019-03-20T16:32:30.342Z,2.83
2019-03-20T16:34:57.029Z,2.60
2019-03-20T16:37:23.771Z,2.80
2019-03-20T16:39:50.415Z,2.67
2019-03-20T16:42:17.151Z,2.70
2019-03-20T16:44:43.827Z,2.55
2019-03-20T16:47:10.462Z,2.60
2019-03-20T16:49:37.252Z,2.65
2019-03-20T16:52:03.859Z,2.85
2019-03-20T16:54:30.515Z,2.55
2019-03-20T16:56:57.242Z,2.75
2019-03-20T16:59:24.206Z,2.60
2019-03-20T17:01:50.843Z,2.37
2019-03-20T17:04:17.789Z,2.85
2019-03-20T17:06:44.454Z,2.87
2019-03-20T17:09:11.264Z,2.70
2019-03-20T17:11:38.744Z,2.65
2019-03-20T17:14:05.635Z,3.10
2019-03-20T17:16:32.284Z,2.83
2019-03-20T17:18:59.228Z,2.80
2019-03-20T17:21:26.074Z,2.98
2019-03-20T17:23:52.931Z,3.02
2019-03-20T17:26:19.669Z,2.92
2019-03-20T17:28:46.299Z,3.12
2019-03-20T17:31:13.148Z,2.98
2019-03-20T17:33:39.888Z,3.10
2019-03-20T17:36:06.628Z,3.95
2019-03-20T17:38:34.391Z,3.08
2019-03-20T17:41:01.131Z,3.83
2019-03-20T17:43:27.794Z,3.60
2019-03-20T17:45:54.541Z,3.10
2019-03-20T17:48:21.288Z,3.35
2019-03-20T17:50:48.007Z,3.10
2019-03-20T17:53:14.823Z,3.10
2019-03-20T17:55:41.572Z,3.20
2019-03-20T17:58:08.198Z,3.47
2019-03-20T18:00:36.679Z,3.70
2019-03-20T18:03:04.754Z,2.83
2019-03-20T18:05:31.383Z,3.40
2019-03-20T18:07:58.031Z,3.60
2019-03-20T18:10:24.768Z,3.67
2019-03-20T18:12:51.508Z,4.42
2019-03-20T18:15:18.250Z,4.25
2019-03-20T18:17:44.921Z,3.87
2019-03-20T18:20:13.506Z,3.72
2019-03-20T18:22:40.299Z,3.75
2019-03-20T18:25:09.382Z,3.77
2019-03-20T18:27:36.017Z,3.47
2019-03-20T18:30:09.327Z,4.05
2019-03-20T18:32:36.066Z,4.05
2019-03-20T18:35:04.349Z,3.83
2019-03-20T18:37:31.191Z,4.30
2019-03-20T18:39:58.035Z,3.20
2019-03-20T18:42:24.765Z,4.30
2019-03-20T18:44:51.613Z,3.95
2019-03-20T18:47:18.356Z,3.80
2019-03-20T18:49:45.086Z,3.42
2019-03-20T18:52:11.827Z,3.72
2019-03-20T18:54:38.536Z,4.03
2019-03-20T18:57:05.209Z,3.62
2019-03-20T18:59:31.944Z,3.87
2019-03-20T19:01:58.684Z,3.50
2019-03-20T19:04:25.412Z,4.28
2019-03-20T19:06:53.184Z,3.72
2019-03-20T19:09:20.038Z,3.83
2019-03-20T19:11:46.765Z,4.53
2019-03-20T19:14:13.511Z,4.08
2019-03-20T19:16:40.250Z,4.22
2019-03-20T19:19:06.987Z,4.33
2019-03-20T19:21:33.935Z,4.00
2019-03-20T19:24:00.665Z,4.40
2019-03-20T19:26:27.309Z,4.97
2019-03-20T19:28:54.041Z,5.25
2019-03-20T19:31:20.786Z,5.80
2019-03-20T19:33:47.635Z,6.78
2019-03-20T19:36:14.281Z,7.12
2019-03-20T19:38:41.036Z,6.30
2019-03-20T19:41:08.944Z,7.05
2019-03-20T19:43:35.810Z,6.72
2019-03-20T19:46:02.492Z,8.03
2019-03-20T19:48:29.628Z,7.15
2019-03-20T19:50:56.418Z,6.20
2019-03-20T19:53:23.135Z,5.33
2019-03-20T19:55:49.774Z,5.40
2019-03-20T19:58:16.562Z,6.28
2019-03-20T20:00:43.299Z,6.05
2019-03-20T20:03:10.031Z,5.90
2019-03-20T20:05:36.779Z,5.60
2019-03-20T20:08:03.619Z,5.25
2019-03-20T20:10:30.454Z,5.28
2019-03-20T20:12:57.202Z,4.95
2019-03-20T20:15:28.716Z,6.08
2019-03-20T20:17:55.344Z,5.97
2019-03-20T20:20:27.263Z,5.40
2019-03-20T20:22:54.118Z,4.83
2019-03-20T20:25:20.952Z,6.35
2019-03-20T20:27:47.678Z,5.90
2019-03-20T20:30:18.213Z,7.28
2019-03-20T20:32:45.834Z,6.97
2019-03-20T20:35:14.035Z,7.10
2019-03-20T20:37:40.730Z,5.87
2019-03-20T20:40:19.393Z,5.72
2019-03-20T20:42:46.226Z,5.30
2019-03-20T20:45:12.951Z,5.85
2019-03-20T20:47:39.617Z,5.65
2019-03-20T20:50:09.006Z,5.95
2019-03-20T20:52:35.705Z,5.87
2019-03-20T20:55:05.466Z,6.03
2019-03-20T20:57:32.203Z,4.97
2019-03-20T20:59:58.939Z,4.87
2019-03-20T21:02:26.044Z,4.90
2019-03-20T21:04:52.721Z,4.30
2019-03-20T21:07:20.592Z,4.05
2019-03-20T21:09:47.331Z,4.03
2019-03-20T21:12:14.072Z,4.12
2019-03-20T21:14:40.899Z,4.15
2019-03-20T21:17:11.002Z,4.40
2019-03-20T21:19:37.727Z,4.05
2019-03-20T21:22:20.107Z,4.33
2019-03-20T21:24:46.884Z,4.33
2019-03-20T21:27:50.571Z,5.55
2019-03-20T21:30:20.924Z,4.50
2019-03-20T21:32:57.365Z,4.12
2019-03-20T21:35:46.975Z,3.98
2019-03-20T21:38:13.272Z,4.60
2019-03-20T21:41:03.685Z,4.05
2019-03-20T21:43:43.258Z,3.92
2019-03-20T21:46:16.393Z,3.80
2019-03-20T21:48:43.002Z,4.35
2019-03-20T21:51:13.440Z,3.10
2019-03-20T21:54:06.643Z,3.98
2019-03-20T21:56:46.238Z,3.60
2019-03-20T21:59:42.904Z,4.12
2019-03-20T22:02:38.459Z,3.98
2019-03-20T22:05:22.838Z,3.77
2019-03-20T22:07:43.499Z,3.92
2019-03-20T22:10:25.829Z,4.28
2019-03-20T22:13:18.549Z,3.98
2019-03-20T22:15:55.275Z,4.50
2019-03-20T22:18:59.420Z,4.25
2019-03-20T22:21:49.722Z,4.15
2019-03-20T22:24:36.833Z,3.95
2019-03-20T22:27:19.346Z,4.55
2019-03-20T22:29:46.012Z,3.72
2019-03-20T22:32:27.989Z,4.20
2019-03-20T22:35:07.403Z,4.00
2019-03-20T22:37:34.023Z,4.25
2019-03-20T22:40:16.661Z,4.60
2019-03-20T22:42:59.059Z,3.98
2019-03-20T22:45:38.012Z,4.17
2019-03-20T22:48:31.235Z,4.25
2019-03-20T22:51:14.810Z,4.05
2019-03-20T22:53:51.043Z,4.92
2019-03-20T22:56:39.457Z,5.08
2019-03-20T22:59:06.086Z,4.20
2019-03-20T23:01:51.750Z,4.30
2019-03-20T23:04:25.955Z,4.22
2019-03-20T23:06:52.588Z,4.85
2019-03-20T23:09:19.297Z,4.35
2019-03-20T23:11:46.006Z,4.70
2019-03-20T23:14:12.638Z,4.58
2019-03-20T23:16:39.319Z,4.55
2019-03-20T23:19:06.001Z,5.12
2019-03-20T23:21:32.647Z,4.20
2019-03-20T23:23:59.371Z,5.22
2019-03-20T23:26:26.049Z,4.62
2019-03-20T23:28:53.636Z,4.80
2019-03-20T23:31:20.357Z,5.05
2019-03-20T23:33:48.190Z,5.72
2019-03-20T23:36:14.894Z,5.78
2019-03-20T23:38:41.644Z,5.30
2019-03-20T23:41:08.380Z,5.28
2019-03-20T23:43:35.394Z,5.70
2019-03-20T23:46:03.183Z,5.75
2019-03-20T23:48:54.409Z,6.58
2019-03-20T23:51:24.012Z,7.55
2019-03-20T23:53:51.467Z,7.40
2019-03-20T23:56:18.222Z,8.18
2019-03-20T23:58:44.847Z,5.92
